createdAt,value
2022-09-09T00:02:59.360Z,1.55
2022-09-09T00:07:50.942Z,1.95
2022-09-09T00:17:41.030Z,1.83
2022-09-09T00:22:27.786Z,2.20
2022-09-09T00:27:20.309Z,1.95
2022-09-09T00:32:17.380Z,2.38
2022-09-09T00:37:07.115Z,2.10
2022-09-09T00:42:09.672Z,2.35
2022-09-09T00:47:03.749Z,1.83
2022-09-09T00:51:56.553Z,1.98
2022-09-09T00:56:52.349Z,1.60
2022-09-09T01:01:37.464Z,3.47
2022-09-09T01:06:31.589Z,2.03
2022-09-09T01:11:24.579Z,1.63
2022-09-09T01:16:15.513Z,2.60
2022-09-09T01:21:12.391Z,2.10
2022-09-09T01:26:17.484Z,2.90
2022-09-09T01:31:04.314Z,1.90
2022-09-09T01:35:55.633Z,2.10
2022-09-09T01:40:41.313Z,1.73
2022-09-09T01:45:29.428Z,2.40
2022-09-09T01:50:18.883Z,2.38
2022-09-09T01:55:04.124Z,2.15
2022-09-09T02:00:06.085Z,1.90
2022-09-09T02:04:58.745Z,1.88
2022-09-09T02:14:38.592Z,2.20
2022-09-09T02:19:29.922Z,2.45
2022-09-09T02:24:21.125Z,2.33
2022-09-09T02:29:09.283Z,2.23
2022-09-09T02:33:59.252Z,2.63
2022-09-09T02:38:51.759Z,1.70
2022-09-09T02:43:40.246Z,1.80
2022-09-09T02:48:33.765Z,1.98
2022-09-09T02:53:22.125Z,1.73
2022-09-09T02:58:10.658Z,1.92
2022-09-09T03:02:59.446Z,2.55
2022-09-09T03:07:44.557Z,1.67
2022-09-09T03:12:29.841Z,1.85
2022-09-09T03:17:14.886Z,1.85
2022-09-09T03:22:02.789Z,2.03
2022-09-09T03:26:48.531Z,1.63
2022-09-09T03:31:34.019Z,1.58
2022-09-09T03:36:19.470Z,2.00
2022-09-09T03:41:08.972Z,1.63
2022-09-09T03:45:58.048Z,1.75
2022-09-09T03:50:47.744Z,1.73
2022-09-09T03:55:32.999Z,2.15
2022-09-09T04:00:20.976Z,2.58
2022-09-09T04:05:08.329Z,1.77
2022-09-09T04:09:55.661Z,1.90
2022-09-09T04:14:40.814Z,1.80
2022-09-09T04:19:29.383Z,2.28
2022-09-09T04:24:14.414Z,1.38
2022-09-09T04:28:59.728Z,1.48
2022-09-09T04:33:44.866Z,1.85
2022-09-09T04:38:32.795Z,1.52
2022-09-09T04:43:19.147Z,1.73
2022-09-09T04:48:05.256Z,1.45
2022-09-09T04:52:50.299Z,1.90
2022-09-09T04:57:38.693Z,1.85
2022-09-09T05:02:23.760Z,1.75
2022-09-09T05:07:09.250Z,1.80
2022-09-09T05:11:54.314Z,1.77
2022-09-09T05:16:42.565Z,1.73
2022-09-09T05:21:30.463Z,2.15
2022-09-09T05:26:18.305Z,2.22
2022-09-09T05:31:06.002Z,2.63
2022-09-09T05:36:00.067Z,2.55
2022-09-09T05:40:51.597Z,2.60
2022-09-09T05:45:37.439Z,2.20
2022-09-09T05:50:22.566Z,1.92
2022-09-09T05:55:12.137Z,1.80
2022-09-09T05:59:57.610Z,2.30
2022-09-09T06:04:42.989Z,2.60
2022-09-09T06:09:28.040Z,2.60
2022-09-09T06:14:16.293Z,2.20
2022-09-09T06:19:01.825Z,2.92
2022-09-09T06:23:48.274Z,2.13
2022-09-09T06:28:33.380Z,1.88
2022-09-09T06:33:21.274Z,1.83
2022-09-09T06:38:06.991Z,1.90
2022-09-09T06:42:52.358Z,2.17
2022-09-09T06:47:37.548Z,2.00
2022-09-09T06:52:26.359Z,1.65
2022-09-09T07:02:17.356Z,2.20
2022-09-09T07:07:03.715Z,2.10
2022-09-09T07:11:54.529Z,1.60
2022-09-09T07:16:40.639Z,1.90
2022-09-09T07:21:27.415Z,1.45
2022-09-09T07:26:14.590Z,1.75
2022-09-09T07:31:06.121Z,1.83
2022-09-09T07:35:51.401Z,1.30
2022-09-09T07:40:37.754Z,1.38
2022-09-09T07:45:22.789Z,1.27
2022-09-09T07:50:11.751Z,1.58
2022-09-09T07:54:57.661Z,1.55
2022-09-09T07:59:42.909Z,1.52
2022-09-09T08:04:29.434Z,1.45
2022-09-09T08:09:17.864Z,1.48
2022-09-09T08:14:03.363Z,1.27
2022-09-09T08:18:48.807Z,1.55
2022-09-09T08:23:33.986Z,1.50
2022-09-09T08:28:22.330Z,1.30
2022-09-09T08:33:07.449Z,1.80
2022-09-09T08:37:54.051Z,1.65
2022-09-09T08:42:44.335Z,2.00
2022-09-09T08:47:42.016Z,1.67
2022-09-09T08:52:32.615Z,1.83
2022-09-09T08:57:28.022Z,1.40
2022-09-09T09:02:20.501Z,1.45
2022-09-09T09:07:19.599Z,1.10
2022-09-09T09:12:06.572Z,1.60
2022-09-09T09:16:56.867Z,1.52
2022-09-09T09:21:46.209Z,1.95
2022-09-09T09:26:37.494Z,1.50
2022-09-09T09:31:26.559Z,1.83
2022-09-09T09:36:14.423Z,1.90
2022-09-09T09:41:01.629Z,1.70
2022-09-09T09:46:13.970Z,2.22
2022-09-09T09:50:58.143Z,1.42
2022-09-09T09:55:54.240Z,1.40
2022-09-09T10:00:39.530Z,1.20
2022-09-09T10:05:33.794Z,1.60
2022-09-09T10:10:29.887Z,1.27
2022-09-09T10:15:30.431Z,0.82
2022-09-09T10:20:28.304Z,1.17
2022-09-09T10:25:39.348Z,1.08
2022-09-09T10:30:28.223Z,1.20
2022-09-09T10:35:18.251Z,1.20
2022-09-09T10:40:18.189Z,1.00
2022-09-09T10:45:17.857Z,1.45
2022-09-09T10:50:57.167Z,1.40
2022-09-09T10:55:43.527Z,1.48
2022-09-09T11:00:41.899Z,1.73
2022-09-09T11:05:35.080Z,0.95
2022-09-09T11:10:28.120Z,1.15
2022-09-09T11:15:25.018Z,1.40
2022-09-09T11:20:16.394Z,1.38
2022-09-09T11:25:07.815Z,1.38
2022-09-09T11:30:37.824Z,1.05
2022-09-09T11:35:36.859Z,1.55
2022-09-09T11:40:26.729Z,0.93
2022-09-09T11:45:25.065Z,1.30
2022-09-09T11:50:31.713Z,0.90
2022-09-09T11:55:32.206Z,0.80
2022-09-09T12:00:38.225Z,1.38
2022-09-09T12:05:23.972Z,1.42
2022-09-09T12:10:24.343Z,1.20
2022-09-09T12:15:30.288Z,1.17
2022-09-09T12:20:19.331Z,1.17
2022-09-09T12:25:20.202Z,1.10
2022-09-09T12:30:13.521Z,1.30
2022-09-09T12:35:06.899Z,1.02
2022-09-09T12:39:57.585Z,0.80
2022-09-09T12:44:44.046Z,0.85
2022-09-09T12:49:35.587Z,1.00
2022-09-09T12:54:24.490Z,1.30
2022-09-09T12:59:25.770Z,0.98
2022-09-09T13:04:23.967Z,1.05
2022-09-09T13:09:09.080Z,0.90
2022-09-09T13:14:00.109Z,0.98
2022-09-09T13:18:46.057Z,1.63
2022-09-09T13:23:33.450Z,1.98
2022-09-09T13:28:26.329Z,1.13
2022-09-09T13:33:27.083Z,1.17
2022-09-09T13:38:13.395Z,1.17
2022-09-09T13:43:00.791Z,1.33
2022-09-09T13:47:46.433Z,1.10
2022-09-09T13:52:34.678Z,1.00
2022-09-09T13:57:21.604Z,0.88
2022-09-09T14:02:06.764Z,1.50
2022-09-09T14:06:53.223Z,1.35
2022-09-09T14:11:41.763Z,1.23
2022-09-09T14:16:27.304Z,1.15
2022-09-09T14:21:12.537Z,1.10
2022-09-09T14:25:57.798Z,1.20
2022-09-09T14:30:47.521Z,1.05
2022-09-09T14:35:34.480Z,0.80
2022-09-09T14:40:19.664Z,0.82
2022-09-09T14:45:05.219Z,1.02
2022-09-09T14:49:54.539Z,0.90
2022-09-09T14:54:39.898Z,1.27
2022-09-09T14:59:25.051Z,1.02
2022-09-09T15:04:10.780Z,1.00
2022-09-09T15:08:58.954Z,0.90
2022-09-09T15:13:45.890Z,1.13
2022-09-09T15:18:30.891Z,0.88
2022-09-09T15:23:18.081Z,1.33
2022-09-09T15:28:05.753Z,1.65
2022-09-09T15:32:51.057Z,1.10
2022-09-09T15:37:36.101Z,0.95
2022-09-09T15:42:21.379Z,1.00
2022-09-09T15:47:09.145Z,0.93
2022-09-09T15:51:56.337Z,1.13
2022-09-09T15:56:41.536Z,1.10
2022-09-09T16:01:27.918Z,1.02
2022-09-09T16:06:16.643Z,0.80
2022-09-09T16:11:12.240Z,1.20
2022-09-09T16:15:59.317Z,1.10
2022-09-09T16:20:44.726Z,1.25
2022-09-09T16:25:32.340Z,0.88
2022-09-09T16:30:17.675Z,0.90
2022-09-09T16:35:03.721Z,0.95
2022-09-09T16:39:50.259Z,0.90
2022-09-09T16:44:37.934Z,1.00
2022-09-09T16:49:24.066Z,1.00
2022-09-09T16:54:11.552Z,1.05
2022-09-09T16:58:59.147Z,1.08
2022-09-09T17:03:46.988Z,1.23
2022-09-09T17:08:34.519Z,1.17
2022-09-09T17:13:20.858Z,0.80
2022-09-09T17:18:06.252Z,0.85
2022-09-09T17:22:53.865Z,1.10
2022-09-09T17:27:39.180Z,1.10
2022-09-09T17:32:24.316Z,1.00
2022-09-09T17:37:09.826Z,1.20
2022-09-09T17:41:57.428Z,1.10
2022-09-09T17:46:44.607Z,2.53
2022-09-09T17:51:31.690Z,1.23
2022-09-09T17:56:18.874Z,2.42
2022-09-09T18:01:10.409Z,1.15
2022-09-09T18:05:55.663Z,1.35
2022-09-09T18:10:40.765Z,1.25
2022-09-09T18:15:48.101Z,1.10
2022-09-09T18:20:34.618Z,1.25
2022-09-09T18:25:19.840Z,1.40
2022-09-09T18:30:05.287Z,1.10
2022-09-09T18:34:55.372Z,1.10
2022-09-09T18:39:43.591Z,1.10
2022-09-09T18:44:31.060Z,1.50
2022-09-09T18:49:17.127Z,1.58
2022-09-09T18:54:04.450Z,1.10
2022-09-09T18:58:55.985Z,1.30
2022-09-09T19:03:41.507Z,1.42
2022-09-09T19:08:27.043Z,1.42
2022-09-09T19:13:12.463Z,1.60
2022-09-09T19:18:05.288Z,2.35
2022-09-09T19:22:50.836Z,1.77
2022-09-09T19:27:37.632Z,1.73
2022-09-09T19:32:52.358Z,1.67
2022-09-09T19:37:32.379Z,1.83
2022-09-09T19:42:17.805Z,1.55
2022-09-09T19:47:03.285Z,1.88
2022-09-09T19:51:48.307Z,2.38
2022-09-09T19:56:37.595Z,1.92
2022-09-09T20:01:24.862Z,1.75
2022-09-09T20:06:12.281Z,2.17
2022-09-09T20:10:57.639Z,2.63
2022-09-09T20:15:45.541Z,4.60
2022-09-09T20:20:30.616Z,6.18
2022-09-09T20:25:16.378Z,5.18
2022-09-09T20:30:01.345Z,4.93
2022-09-09T20:34:49.264Z,4.40
2022-09-09T20:39:35.850Z,4.30
2022-09-09T20:44:23.007Z,3.47
2022-09-09T20:49:10.028Z,5.80
2022-09-09T20:54:00.615Z,5.60
2022-09-09T20:58:46.471Z,4.68
2022-09-09T21:03:33.593Z,4.45
2022-09-09T21:08:18.642Z,4.80
2022-09-09T21:13:06.555Z,5.03
2022-09-09T21:17:51.617Z,4.70
2022-09-09T21:22:36.938Z,4.65
2022-09-09T21:27:23.450Z,4.15
2022-09-09T21:32:11.540Z,3.67
2022-09-09T21:36:56.600Z,3.55
2022-09-09T21:41:41.941Z,3.70
2022-09-09T21:46:29.468Z,3.40
2022-09-09T21:51:19.252Z,3.47
2022-09-09T21:56:05.888Z,4.43
2022-09-09T22:00:51.416Z,5.65
2022-09-09T22:05:36.754Z,4.90
2022-09-09T22:10:27.258Z,5.68
2022-09-09T22:15:13.438Z,5.95
2022-09-09T22:19:59.680Z,10.57
2022-09-09T22:24:45.442Z,8.85
2022-09-09T22:29:33.573Z,8.98
2022-09-09T22:34:21.547Z,7.80
2022-09-09T22:39:07.824Z,6.28
2022-09-09T22:43:53.896Z,5.15
2022-09-09T22:48:42.358Z,4.63
2022-09-09T22:53:27.644Z,3.30
2022-09-09T22:58:13.098Z,2.92
2022-09-09T23:02:58.755Z,2.85
2022-09-09T23:07:47.078Z,2.10
2022-09-09T23:12:33.001Z,2.08
2022-09-09T23:17:18.917Z,2.20
2022-09-09T23:22:04.911Z,2.28
2022-09-09T23:26:53.105Z,1.67
2022-09-09T23:31:40.113Z,1.88
2022-09-09T23:36:26.511Z,2.08
2022-09-09T23:41:14.063Z,2.10
2022-09-09T23:46:03.010Z,2.70
2022-09-09T23:50:50.864Z,3.45
2022-09-09T23:55:35.859Z,4.15
